sensor_id;sensor_type;location;lat;lon;timestamp;temperature;humidity
60473;DHT22;46318;52.716;6.444;2022-11-15T00:02:13;7.70;99.90
60473;DHT22;46318;52.716;6.444;2022-11-15T00:04:38;7.70;99.90
60473;DHT22;46318;52.716;6.444;2022-11-15T00:07:04;7.70;99.90
60473;DHT22;46318;52.716;6.444;2022-11-15T00:09:30;7.70;99.90
60473;DHT22;46318;52.716;6.444;2022-11-15T00:11:56;7.70;99.90
60473;DHT22;46318;52.716;6.444;2022-11-15T00:14:21;7.70;99.90
60473;DHT22;46318;52.716;6.444;2022-11-15T00:16:47;7.70;99.90
60473;DHT22;46318;52.716;6.444;2022-11-15T00:19:13;7.70;99.90
60473;DHT22;46318;52.716;6.444;2022-11-15T00:21:39;7.70;99.90
60473;DHT22;46318;52.716;6.444;2022-11-15T00:24:04;7.70;99.90
60473;DHT22;46318;52.716;6.444;2022-11-15T00:26:30;7.70;99.90
60473;DHT22;46318;52.716;6.444;2022-11-15T00:28:56;7.70;99.90
60473;DHT22;46318;52.716;6.444;2022-11-15T00:31:22;7.70;99.90
60473;DHT22;46318;52.716;6.444;2022-11-15T00:33:47;7.70;99.90
60473;DHT22;46318;52.716;6.444;2022-11-15T00:36:13;7.70;99.90
60473;DHT22;46318;52.716;6.444;2022-11-15T00:38:39;7.70;99.90
60473;DHT22;46318;52.716;6.444;2022-11-15T00:41:07;7.70;99.90
60473;DHT22;46318;52.716;6.444;2022-11-15T00:43:33;7.70;99.90
60473;DHT22;46318;52.716;6.444;2022-11-15T00:45:59;7.60;99.90
60473;DHT22;46318;52.716;6.444;2022-11-15T00:48:25;7.70;99.90
60473;DHT22;46318;52.716;6.444;2022-11-15T00:50:51;7.70;99.90
60473;DHT22;46318;52.716;6.444;2022-11-15T00:53:17;7.70;99.90
60473;DHT22;46318;52.716;6.444;2022-11-15T00:55:43;7.60;99.90
60473;DHT22;46318;52.716;6.444;2022-11-15T00:58:09;7.70;99.90
60473;DHT22;46318;52.716;6.444;2022-11-15T01:00:35;7.70;99.90
60473;DHT22;46318;52.716;6.444;2022-11-15T01:03:01;7.70;99.90
60473;DHT22;46318;52.716;6.444;2022-11-15T01:05:27;7.70;99.90
60473;DHT22;46318;52.716;6.444;2022-11-15T01:07:55;7.70;99.90
60473;DHT22;46318;52.716;6.444;2022-11-15T01:10:22;7.70;99.90
60473;DHT22;46318;52.716;6.444;2022-11-15T01:12:48;7.70;99.90
60473;DHT22;46318;52.716;6.444;2022-11-15T01:15:14;7.70;99.90
60473;DHT22;46318;52.716;6.444;2022-11-15T01:17:40;7.70;99.90
60473;DHT22;46318;52.716;6.444;2022-11-15T01:20:07;7.70;99.90
60473;DHT22;46318;52.716;6.444;2022-11-15T01:22:33;7.70;99.90
60473;DHT22;46318;52.716;6.444;2022-11-15T01:24:59;7.60;99.90
60473;DHT22;46318;52.716;6.444;2022-11-15T01:27:25;7.70;99.90
60473;DHT22;46318;52.716;6.444;2022-11-15T01:29:51;7.60;99.90
60473;DHT22;46318;52.716;6.444;2022-11-15T01:32:16;7.70;99.90
60473;DHT22;46318;52.716;6.444;2022-11-15T01:34:42;7.70;99.90
60473;DHT22;46318;52.716;6.444;2022-11-15T01:37:08;7.70;99.90
60473;DHT22;46318;52.716;6.444;2022-11-15T01:39:34;7.70;99.90
60473;DHT22;46318;52.716;6.444;2022-11-15T01:42:00;7.70;99.90
60473;DHT22;46318;52.716;6.444;2022-11-15T01:44:45;7.70;99.90
60473;DHT22;46318;52.716;6.444;2022-11-15T01:47:16;7.70;99.90
60473;DHT22;46318;52.716;6.444;2022-11-15T01:49:57;7.70;99.90
60473;DHT22;46318;52.716;6.444;2022-11-15T01:52:27;7.70;99.90
60473;DHT22;46318;52.716;6.444;2022-11-15T01:55:06;7.70;99.90
60473;DHT22;46318;52.716;6.444;2022-11-15T01:57:34;7.70;99.90
60473;DHT22;46318;52.716;6.444;2022-11-15T02:00:01;7.70;99.90
60473;DHT22;46318;52.716;6.444;2022-11-15T02:02:29;7.70;99.90
60473;DHT22;46318;52.716;6.444;2022-11-15T02:04:54;7.70;99.90
60473;DHT22;46318;52.716;6.444;2022-11-15T02:07:21;7.80;99.90
60473;DHT22;46318;52.716;6.444;2022-11-15T02:09:48;7.80;99.90
60473;DHT22;46318;52.716;6.444;2022-11-15T02:12:19;7.70;99.90
60473;DHT22;46318;52.716;6.444;2022-11-15T02:14:49;7.80;99.90
60473;DHT22;46318;52.716;6.444;2022-11-15T02:28:47;7.80;99.90
60473;DHT22;46318;52.716;6.444;2022-11-15T02:31:26;7.80;99.90
60473;DHT22;46318;52.716;6.444;2022-11-15T02:37:09;7.80;99.90
60473;DHT22;46318;52.716;6.444;2022-11-15T02:40:06;7.90;99.90
60473;DHT22;46318;52.716;6.444;2022-11-15T02:42:36;7.80;99.90
60473;DHT22;46318;52.716;6.444;2022-11-15T02:45:29;7.80;99.90
60473;DHT22;46318;52.716;6.444;2022-11-15T02:47:59;7.90;99.90
60473;DHT22;46318;52.716;6.444;2022-11-15T02:50:29;7.90;99.90
60473;DHT22;46318;52.716;6.444;2022-11-15T02:52:57;7.90;99.90
60473;DHT22;46318;52.716;6.444;2022-11-15T02:55:37;7.90;99.90
60473;DHT22;46318;52.716;6.444;2022-11-15T03:09:52;8.00;99.90
60473;DHT22;46318;52.716;6.444;2022-11-15T03:12:45;8.00;99.90
60473;DHT22;46318;52.716;6.444;2022-11-15T03:15:32;8.00;99.90
60473;DHT22;46318;52.716;6.444;2022-11-15T03:18:07;8.00;99.90
60473;DHT22;46318;52.716;6.444;2022-11-15T03:20:48;8.00;99.90
60473;DHT22;46318;52.716;6.444;2022-11-15T03:23:14;8.00;99.90
60473;DHT22;46318;52.716;6.444;2022-11-15T03:25:46;8.00;99.90
60473;DHT22;46318;52.716;6.444;2022-11-15T03:28:22;8.00;99.90
60473;DHT22;46318;52.716;6.444;2022-11-15T03:30:52;8.10;99.90
60473;DHT22;46318;52.716;6.444;2022-11-15T03:33:19;8.10;99.90
60473;DHT22;46318;52.716;6.444;2022-11-15T03:35:47;8.10;99.90
60473;DHT22;46318;52.716;6.444;2022-11-15T03:38:19;8.10;99.90
60473;DHT22;46318;52.716;6.444;2022-11-15T03:40:58;8.10;99.90
60473;DHT22;46318;52.716;6.444;2022-11-15T03:43:41;8.10;99.90
60473;DHT22;46318;52.716;6.444;2022-11-15T03:46:14;8.10;99.90
60473;DHT22;46318;52.716;6.444;2022-11-15T03:48:52;8.10;99.90
60473;DHT22;46318;52.716;6.444;2022-11-15T03:51:20;8.10;99.90
60473;DHT22;46318;52.716;6.444;2022-11-15T03:53:46;8.20;99.90
60473;DHT22;46318;52.716;6.444;2022-11-15T03:56:12;8.20;99.90
60473;DHT22;46318;52.716;6.444;2022-11-15T03:58:38;8.20;99.90
60473;DHT22;46318;52.716;6.444;2022-11-15T04:01:04;8.20;99.90
60473;DHT22;46318;52.716;6.444;2022-11-15T04:03:29;8.20;99.90
60473;DHT22;46318;52.716;6.444;2022-11-15T04:05:55;8.20;99.90
60473;DHT22;46318;52.716;6.444;2022-11-15T04:08:21;8.30;99.90
60473;DHT22;46318;52.716;6.444;2022-11-15T04:10:49;8.20;99.90
60473;DHT22;46318;52.716;6.444;2022-11-15T04:13:15;8.30;99.90
60473;DHT22;46318;52.716;6.444;2022-11-15T04:15:40;8.30;99.90
60473;DHT22;46318;52.716;6.444;2022-11-15T04:18:06;8.30;99.90
60473;DHT22;46318;52.716;6.444;2022-11-15T04:20:32;8.30;99.90
60473;DHT22;46318;52.716;6.444;2022-11-15T04:23:21;8.30;99.90
60473;DHT22;46318;52.716;6.444;2022-11-15T04:26:18;8.30;99.90
60473;DHT22;46318;52.716;6.444;2022-11-15T04:28:45;8.40;99.90
60473;DHT22;46318;52.716;6.444;2022-11-15T04:31:29;8.40;99.90
60473;DHT22;46318;52.716;6.444;2022-11-15T04:33:55;8.40;99.90
60473;DHT22;46318;52.716;6.444;2022-11-15T04:36:21;8.40;99.90
60473;DHT22;46318;52.716;6.444;2022-11-15T04:39:06;8.50;99.90
60473;DHT22;46318;52.716;6.444;2022-11-15T04:41:32;8.50;99.90
60473;DHT22;46318;52.716;6.444;2022-11-15T04:43:58;8.50;99.90
60473;DHT22;46318;52.716;6.444;2022-11-15T04:46:24;8.60;99.90
60473;DHT22;46318;52.716;6.444;2022-11-15T04:48:53;8.60;99.90
60473;DHT22;46318;52.716;6.444;2022-11-15T04:51:19;8.60;99.90
60473;DHT22;46318;52.716;6.444;2022-11-15T04:53:45;8.60;99.90
60473;DHT22;46318;52.716;6.444;2022-11-15T04:56:11;8.70;99.90
60473;DHT22;46318;52.716;6.444;2022-11-15T04:58:37;8.70;99.90
60473;DHT22;46318;52.716;6.444;2022-11-15T05:01:13;8.70;99.90
60473;DHT22;46318;52.716;6.444;2022-11-15T05:03:43;8.70;99.90
60473;DHT22;46318;52.716;6.444;2022-11-15T05:06:28;8.80;99.90
60473;DHT22;46318;52.716;6.444;2022-11-15T05:08:55;8.80;99.90
60473;DHT22;46318;52.716;6.444;2022-11-15T05:11:21;8.80;99.90
60473;DHT22;46318;52.716;6.444;2022-11-15T05:13:47;8.80;99.90
60473;DHT22;46318;52.716;6.444;2022-11-15T05:16:13;8.80;99.90
60473;DHT22;46318;52.716;6.444;2022-11-15T05:18:39;8.90;99.90
60473;DHT22;46318;52.716;6.444;2022-11-15T05:21:08;8.80;99.90
60473;DHT22;46318;52.716;6.444;2022-11-15T05:23:34;8.90;99.90
60473;DHT22;46318;52.716;6.444;2022-11-15T05:26:01;8.90;99.90
60473;DHT22;46318;52.716;6.444;2022-11-15T05:28:27;8.90;99.90
60473;DHT22;46318;52.716;6.444;2022-11-15T05:30:53;8.90;99.90
60473;DHT22;46318;52.716;6.444;2022-11-15T05:33:26;8.90;99.90
60473;DHT22;46318;52.716;6.444;2022-11-15T05:35:59;9.00;99.90
60473;DHT22;46318;52.716;6.444;2022-11-15T05:38:28;9.00;99.90
60473;DHT22;46318;52.716;6.444;2022-11-15T05:40:54;9.00;99.90
60473;DHT22;46318;52.716;6.444;2022-11-15T05:43:20;9.00;99.90
60473;DHT22;46318;52.716;6.444;2022-11-15T05:45:46;9.00;99.90
60473;DHT22;46318;52.716;6.444;2022-11-15T05:48:13;9.00;99.90
60473;DHT22;46318;52.716;6.444;2022-11-15T05:50:42;9.10;99.90
60473;DHT22;46318;52.716;6.444;2022-11-15T05:53:11;9.10;99.90
60473;DHT22;46318;52.716;6.444;2022-11-15T05:55:39;9.10;99.90
60473;DHT22;46318;52.716;6.444;2022-11-15T05:58:05;9.20;99.90
60473;DHT22;46318;52.716;6.444;2022-11-15T06:00:31;9.20;99.90
60473;DHT22;46318;52.716;6.444;2022-11-15T06:02:57;9.20;99.90
60473;DHT22;46318;52.716;6.444;2022-11-15T06:05:22;9.20;99.90
60473;DHT22;46318;52.716;6.444;2022-11-15T06:07:48;9.30;99.90
60473;DHT22;46318;52.716;6.444;2022-11-15T06:10:14;9.30;99.90
60473;DHT22;46318;52.716;6.444;2022-11-15T06:12:39;9.30;99.90
60473;DHT22;46318;52.716;6.444;2022-11-15T06:15:06;9.40;99.90
60473;DHT22;46318;52.716;6.444;2022-11-15T06:17:32;9.40;99.90
60473;DHT22;46318;52.716;6.444;2022-11-15T06:19:58;9.40;99.90
60473;DHT22;46318;52.716;6.444;2022-11-15T06:22:23;9.40;99.90
60473;DHT22;46318;52.716;6.444;2022-11-15T06:24:49;9.40;99.90
60473;DHT22;46318;52.716;6.444;2022-11-15T06:27:15;9.50;99.90
60473;DHT22;46318;52.716;6.444;2022-11-15T06:29:41;9.50;99.90
60473;DHT22;46318;52.716;6.444;2022-11-15T06:32:07;9.50;99.90
60473;DHT22;46318;52.716;6.444;2022-11-15T06:34:33;9.50;99.90
60473;DHT22;46318;52.716;6.444;2022-11-15T06:36:59;9.50;99.90
60473;DHT22;46318;52.716;6.444;2022-11-15T06:39:24;9.60;99.90
60473;DHT22;46318;52.716;6.444;2022-11-15T06:41:50;9.60;99.90
60473;DHT22;46318;52.716;6.444;2022-11-15T06:44:16;9.60;99.90
60473;DHT22;46318;52.716;6.444;2022-11-15T06:46:41;9.60;99.90
60473;DHT22;46318;52.716;6.444;2022-11-15T06:49:07;9.60;99.90
60473;DHT22;46318;52.716;6.444;2022-11-15T06:51:33;9.70;99.90
60473;DHT22;46318;52.716;6.444;2022-11-15T06:53:59;9.70;99.90
60473;DHT22;46318;52.716;6.444;2022-11-15T06:56:24;9.70;99.90
60473;DHT22;46318;52.716;6.444;2022-11-15T06:58:50;9.70;99.90
60473;DHT22;46318;52.716;6.444;2022-11-15T07:01:16;9.70;99.90
60473;DHT22;46318;52.716;6.444;2022-11-15T07:03:42;9.80;99.90
60473;DHT22;46318;52.716;6.444;2022-11-15T07:06:09;9.80;99.90
60473;DHT22;46318;52.716;6.444;2022-11-15T07:08:35;9.80;99.90
60473;DHT22;46318;52.716;6.444;2022-11-15T07:11:05;9.80;99.90
60473;DHT22;46318;52.716;6.444;2022-11-15T07:13:32;9.80;99.90
60473;DHT22;46318;52.716;6.444;2022-11-15T07:16:02;9.80;99.90
60473;DHT22;46318;52.716;6.444;2022-11-15T07:18:29;9.90;99.90
60473;DHT22;46318;52.716;6.444;2022-11-15T07:20:55;9.90;99.90
60473;DHT22;46318;52.716;6.444;2022-11-15T07:23:21;9.90;99.90
60473;DHT22;46318;52.716;6.444;2022-11-15T07:25:47;9.90;99.90
60473;DHT22;46318;52.716;6.444;2022-11-15T07:28:12;9.90;99.90
60473;DHT22;46318;52.716;6.444;2022-11-15T07:30:38;9.90;99.90
60473;DHT22;46318;52.716;6.444;2022-11-15T07:33:04;10.00;99.90
60473;DHT22;46318;52.716;6.444;2022-11-15T07:35:30;10.00;99.90
60473;DHT22;46318;52.716;6.444;2022-11-15T07:38:00;10.00;99.90
60473;DHT22;46318;52.716;6.444;2022-11-15T07:40:31;10.00;99.90
60473;DHT22;46318;52.716;6.444;2022-11-15T07:43:07;10.00;99.90
60473;DHT22;46318;52.716;6.444;2022-11-15T07:45:33;10.00;99.90
60473;DHT22;46318;52.716;6.444;2022-11-15T07:48:00;10.00;99.90
60473;DHT22;46318;52.716;6.444;2022-11-15T07:50:26;10.10;99.90
60473;DHT22;46318;52.716;6.444;2022-11-15T07:52:59;10.10;99.90
60473;DHT22;46318;52.716;6.444;2022-11-15T07:55:26;10.10;99.90
60473;DHT22;46318;52.716;6.444;2022-11-15T07:58:03;10.10;99.90
60473;DHT22;46318;52.716;6.444;2022-11-15T08:00:30;10.20;99.90
60473;DHT22;46318;52.716;6.444;2022-11-15T08:03:06;10.20;99.90
60473;DHT22;46318;52.716;6.444;2022-11-15T08:05:37;10.20;99.90
60473;DHT22;46318;52.716;6.444;2022-11-15T08:08:04;10.20;99.90
60473;DHT22;46318;52.716;6.444;2022-11-15T08:10:30;10.20;99.90
60473;DHT22;46318;52.716;6.444;2022-11-15T08:13:07;10.20;99.90
60473;DHT22;46318;52.716;6.444;2022-11-15T08:15:35;10.30;99.90
60473;DHT22;46318;52.716;6.444;2022-11-15T08:18:04;10.30;99.90
60473;DHT22;46318;52.716;6.444;2022-11-15T08:20:32;10.30;99.90
60473;DHT22;46318;52.716;6.444;2022-11-15T08:22:59;10.30;99.90
60473;DHT22;46318;52.716;6.444;2022-11-15T08:25:27;10.30;99.90
60473;DHT22;46318;52.716;6.444;2022-11-15T08:27:55;10.30;99.90
60473;DHT22;46318;52.716;6.444;2022-11-15T08:30:23;10.30;99.90
60473;DHT22;46318;52.716;6.444;2022-11-15T08:32:50;10.40;99.90
60473;DHT22;46318;52.716;6.444;2022-11-15T08:35:18;10.40;99.90
60473;DHT22;46318;52.716;6.444;2022-11-15T08:37:45;10.40;99.90
60473;DHT22;46318;52.716;6.444;2022-11-15T08:40:11;10.40;99.90
60473;DHT22;46318;52.716;6.444;2022-11-15T08:42:37;10.50;99.90
60473;DHT22;46318;52.716;6.444;2022-11-15T08:45:03;10.50;99.90
60473;DHT22;46318;52.716;6.444;2022-11-15T08:47:29;10.50;99.90
60473;DHT22;46318;52.716;6.444;2022-11-15T08:49:55;10.50;99.90
60473;DHT22;46318;52.716;6.444;2022-11-15T08:52:21;10.60;99.90
60473;DHT22;46318;52.716;6.444;2022-11-15T08:54:47;10.60;99.90
60473;DHT22;46318;52.716;6.444;2022-11-15T08:57:13;10.60;99.90
60473;DHT22;46318;52.716;6.444;2022-11-15T08:59:39;10.60;99.90
60473;DHT22;46318;52.716;6.444;2022-11-15T09:02:05;10.70;99.90
60473;DHT22;46318;52.716;6.444;2022-11-15T09:04:31;10.60;99.90
60473;DHT22;46318;52.716;6.444;2022-11-15T09:06:57;10.70;99.90
60473;DHT22;46318;52.716;6.444;2022-11-15T09:09:23;10.70;99.90
60473;DHT22;46318;52.716;6.444;2022-11-15T09:11:49;10.70;99.90
60473;DHT22;46318;52.716;6.444;2022-11-15T09:14:16;10.70;99.90
60473;DHT22;46318;52.716;6.444;2022-11-15T09:16:41;10.70;99.90
60473;DHT22;46318;52.716;6.444;2022-11-15T09:19:07;10.80;99.90
60473;DHT22;46318;52.716;6.444;2022-11-15T09:21:33;10.80;99.90
60473;DHT22;46318;52.716;6.444;2022-11-15T09:23:59;10.90;99.90
60473;DHT22;46318;52.716;6.444;2022-11-15T09:26:25;10.90;99.90
60473;DHT22;46318;52.716;6.444;2022-11-15T09:28:50;10.90;99.90
60473;DHT22;46318;52.716;6.444;2022-11-15T09:31:16;10.90;99.90
60473;DHT22;46318;52.716;6.444;2022-11-15T09:33:45;11.00;99.90
60473;DHT22;46318;52.716;6.444;2022-11-15T09:36:11;11.00;99.90
60473;DHT22;46318;52.716;6.444;2022-11-15T09:38:38;11.00;99.90
60473;DHT22;46318;52.716;6.444;2022-11-15T09:49:32;11.10;99.90
60473;DHT22;46318;52.716;6.444;2022-11-15T09:51:58;11.10;99.90
60473;DHT22;46318;52.716;6.444;2022-11-15T09:54:31;11.10;99.90
60473;DHT22;46318;52.716;6.444;2022-11-15T09:57:20;11.20;99.90
60473;DHT22;46318;52.716;6.444;2022-11-15T10:06:23;11.20;99.90
60473;DHT22;46318;52.716;6.444;2022-11-15T10:08:52;11.20;99.90
60473;DHT22;46318;52.716;6.444;2022-11-15T10:11:27;11.30;99.90
60473;DHT22;46318;52.716;6.444;2022-11-15T10:14:16;11.30;99.90
60473;DHT22;46318;52.716;6.444;2022-11-15T10:22:26;11.30;99.90
60473;DHT22;46318;52.716;6.444;2022-11-15T10:27:35;11.40;99.90
60473;DHT22;46318;52.716;6.444;2022-11-15T10:30:01;11.50;99.90
60473;DHT22;46318;52.716;6.444;2022-11-15T10:32:29;11.50;99.90
60473;DHT22;46318;52.716;6.444;2022-11-15T10:34:58;11.50;99.90
60473;DHT22;46318;52.716;6.444;2022-11-15T10:37:29;11.60;99.90
60473;DHT22;46318;52.716;6.444;2022-11-15T10:40:02;11.70;99.90
60473;DHT22;46318;52.716;6.444;2022-11-15T10:42:38;11.70;99.90
60473;DHT22;46318;52.716;6.444;2022-11-15T10:45:29;11.90;99.90
60473;DHT22;46318;52.716;6.444;2022-11-15T10:48:38;12.00;99.90
60473;DHT22;46318;52.716;6.444;2022-11-15T10:50:48;12.00;99.90
60473;DHT22;46318;52.716;6.444;2022-11-15T10:53:22;12.10;99.90
60473;DHT22;46318;52.716;6.444;2022-11-15T10:55:55;12.20;99.90
60473;DHT22;46318;52.716;6.444;2022-11-15T10:58:34;12.20;99.90
60473;DHT22;46318;52.716;6.444;2022-11-15T11:01:17;12.20;99.90
60473;DHT22;46318;52.716;6.444;2022-11-15T11:03:45;12.20;99.90
60473;DHT22;46318;52.716;6.444;2022-11-15T11:06:27;12.20;99.90
60473;DHT22;46318;52.716;6.444;2022-11-15T11:09:01;12.20;99.90
60473;DHT22;46318;52.716;6.444;2022-11-15T11:11:50;12.30;99.90
60473;DHT22;46318;52.716;6.444;2022-11-15T11:14:43;12.30;99.90
60473;DHT22;46318;52.716;6.444;2022-11-15T11:17:23;12.40;99.90
60473;DHT22;46318;52.716;6.444;2022-11-15T11:28:52;12.50;99.90
60473;DHT22;46318;52.716;6.444;2022-11-15T11:34:19;12.50;99.90
60473;DHT22;46318;52.716;6.444;2022-11-15T11:37:36;12.60;99.90
60473;DHT22;46318;52.716;6.444;2022-11-15T11:40:35;12.60;99.90
60473;DHT22;46318;52.716;6.444;2022-11-15T11:48:48;12.60;99.90
60473;DHT22;46318;52.716;6.444;2022-11-15T11:54:13;12.60;99.90
60473;DHT22;46318;52.716;6.444;2022-11-15T11:56:44;12.60;99.90
60473;DHT22;46318;52.716;6.444;2022-11-15T12:02:41;12.60;99.90
60473;DHT22;46318;52.716;6.444;2022-11-15T12:05:51;12.60;99.90
60473;DHT22;46318;52.716;6.444;2022-11-15T12:11:15;12.60;99.90
60473;DHT22;46318;52.716;6.444;2022-11-15T12:13:50;12.60;99.90
60473;DHT22;46318;52.716;6.444;2022-11-15T12:16:27;12.70;99.90
60473;DHT22;46318;52.716;6.444;2022-11-15T12:18:56;12.70;99.90
60473;DHT22;46318;52.716;6.444;2022-11-15T12:21:50;12.70;99.90
60473;DHT22;46318;52.716;6.444;2022-11-15T12:24:41;12.80;99.90
60473;DHT22;46318;52.716;6.444;2022-11-15T12:27:32;12.80;99.90
60473;DHT22;46318;52.716;6.444;2022-11-15T12:30:19;12.80;99.90
60473;DHT22;46318;52.716;6.444;2022-11-15T12:32:55;12.80;99.90
60473;DHT22;46318;52.716;6.444;2022-11-15T12:37:54;12.80;99.90
60473;DHT22;46318;52.716;6.444;2022-11-15T12:40:35;12.80;99.90
60473;DHT22;46318;52.716;6.444;2022-11-15T12:45:45;12.80;99.90
60473;DHT22;46318;52.716;6.444;2022-11-15T13:06:52;12.80;99.90
60473;DHT22;46318;52.716;6.444;2022-11-15T13:14:59;12.80;99.90
60473;DHT22;46318;52.716;6.444;2022-11-15T13:17:37;12.80;99.90
60473;DHT22;46318;52.716;6.444;2022-11-15T13:20:32;12.80;99.90
60473;DHT22;46318;52.716;6.444;2022-11-15T13:25:52;12.70;99.90
60473;DHT22;46318;52.716;6.444;2022-11-15T13:28:44;12.70;99.90
60473;DHT22;46318;52.716;6.444;2022-11-15T13:34:23;12.70;99.90
60473;DHT22;46318;52.716;6.444;2022-11-15T13:36:52;12.70;99.90
60473;DHT22;46318;52.716;6.444;2022-11-15T13:39:34;12.70;99.90
60473;DHT22;46318;52.716;6.444;2022-11-15T13:42:03;12.70;99.90
60473;DHT22;46318;52.716;6.444;2022-11-15T13:44:30;12.70;99.90
60473;DHT22;46318;52.716;6.444;2022-11-15T13:47:13;12.60;99.90
60473;DHT22;46318;52.716;6.444;2022-11-15T13:49:40;12.60;99.90
60473;DHT22;46318;52.716;6.444;2022-11-15T13:52:10;12.60;99.90
60473;DHT22;46318;52.716;6.444;2022-11-15T13:54:47;12.60;99.90
60473;DHT22;46318;52.716;6.444;2022-11-15T13:57:18;12.50;99.90
60473;DHT22;46318;52.716;6.444;2022-11-15T13:59:55;12.50;99.90
60473;DHT22;46318;52.716;6.444;2022-11-15T14:02:32;12.50;99.90
60473;DHT22;46318;52.716;6.444;2022-11-15T14:05:15;12.50;99.90
60473;DHT22;46318;52.716;6.444;2022-11-15T14:07:56;12.40;99.90
60473;DHT22;46318;52.716;6.444;2022-11-15T14:10:36;12.40;99.90
60473;DHT22;46318;52.716;6.444;2022-11-15T14:13:10;12.40;99.90
60473;DHT22;46318;52.716;6.444;2022-11-15T14:15:53;12.40;99.90
60473;DHT22;46318;52.716;6.444;2022-11-15T14:18:49;12.40;99.90
60473;DHT22;46318;52.716;6.444;2022-11-15T14:21:17;12.30;99.90
60473;DHT22;46318;52.716;6.444;2022-11-15T14:23:44;12.30;99.90
60473;DHT22;46318;52.716;6.444;2022-11-15T14:26:30;12.30;99.90
60473;DHT22;46318;52.716;6.444;2022-11-15T14:29:27;12.30;99.90
60473;DHT22;46318;52.716;6.444;2022-11-15T14:32:15;12.30;99.90
60473;DHT22;46318;52.716;6.444;2022-11-15T14:34:46;12.30;99.90
60473;DHT22;46318;52.716;6.444;2022-11-15T14:37:20;12.30;99.90
60473;DHT22;46318;52.716;6.444;2022-11-15T14:39:48;12.30;99.90
60473;DHT22;46318;52.716;6.444;2022-11-15T14:42:14;12.20;99.90
60473;DHT22;46318;52.716;6.444;2022-11-15T14:44:40;12.20;99.90
60473;DHT22;46318;52.716;6.444;2022-11-15T14:47:06;12.20;99.90
60473;DHT22;46318;52.716;6.444;2022-11-15T14:49:31;12.20;99.90
60473;DHT22;46318;52.716;6.444;2022-11-15T14:51:57;12.20;99.90
60473;DHT22;46318;52.716;6.444;2022-11-15T14:54:23;12.20;99.90
60473;DHT22;46318;52.716;6.444;2022-11-15T14:56:49;12.20;99.90
60473;DHT22;46318;52.716;6.444;2022-11-15T14:59:14;12.20;99.90
60473;DHT22;46318;52.716;6.444;2022-11-15T15:01:40;12.20;99.90
60473;DHT22;46318;52.716;6.444;2022-11-15T15:04:06;12.20;99.90
60473;DHT22;46318;52.716;6.444;2022-11-15T15:06:32;12.10;99.90
60473;DHT22;46318;52.716;6.444;2022-11-15T15:08:57;12.20;99.90
60473;DHT22;46318;52.716;6.444;2022-11-15T15:11:26;12.20;99.90
60473;DHT22;46318;52.716;6.444;2022-11-15T15:13:53;12.10;99.90
60473;DHT22;46318;52.716;6.444;2022-11-15T15:16:22;12.10;99.90
60473;DHT22;46318;52.716;6.444;2022-11-15T15:18:49;12.10;99.90
60473;DHT22;46318;52.716;6.444;2022-11-15T15:21:26;12.10;99.90
60473;DHT22;46318;52.716;6.444;2022-11-15T15:23:53;12.10;99.90
60473;DHT22;46318;52.716;6.444;2022-11-15T15:26:19;12.10;99.90
60473;DHT22;46318;52.716;6.444;2022-11-15T15:28:46;12.10;99.90
60473;DHT22;46318;52.716;6.444;2022-11-15T15:31:13;12.00;99.90
60473;DHT22;46318;52.716;6.444;2022-11-15T15:33:39;12.00;99.90
60473;DHT22;46318;52.716;6.444;2022-11-15T15:36:12;12.00;99.90
60473;DHT22;46318;52.716;6.444;2022-11-15T15:38:39;12.00;99.90
60473;DHT22;46318;52.716;6.444;2022-11-15T15:41:13;11.90;99.90
60473;DHT22;46318;52.716;6.444;2022-11-15T15:43:40;11.90;99.90
60473;DHT22;46318;52.716;6.444;2022-11-15T15:46:16;11.90;99.90
60473;DHT22;46318;52.716;6.444;2022-11-15T15:48:43;11.90;99.90
60473;DHT22;46318;52.716;6.444;2022-11-15T15:51:09;11.80;99.90
60473;DHT22;46318;52.716;6.444;2022-11-15T15:53:36;11.80;99.90
60473;DHT22;46318;52.716;6.444;2022-11-15T15:56:02;11.80;99.90
60473;DHT22;46318;52.716;6.444;2022-11-15T15:58:28;11.70;99.90
60473;DHT22;46318;52.716;6.444;2022-11-15T16:00:53;11.70;99.90
60473;DHT22;46318;52.716;6.444;2022-11-15T16:03:19;11.70;99.90
60473;DHT22;46318;52.716;6.444;2022-11-15T16:05:45;11.60;99.90
60473;DHT22;46318;52.716;6.444;2022-11-15T16:08:22;11.60;99.90
60473;DHT22;46318;52.716;6.444;2022-11-15T16:10:49;11.60;99.90
60473;DHT22;46318;52.716;6.444;2022-11-15T16:13:15;11.60;99.90
60473;DHT22;46318;52.716;6.444;2022-11-15T16:15:42;11.50;99.90
60473;DHT22;46318;52.716;6.444;2022-11-15T16:18:17;11.50;99.90
60473;DHT22;46318;52.716;6.444;2022-11-15T16:20:46;11.50;99.90
60473;DHT22;46318;52.716;6.444;2022-11-15T16:23:16;11.40;99.90
60473;DHT22;46318;52.716;6.444;2022-11-15T16:25:53;11.40;99.90
60473;DHT22;46318;52.716;6.444;2022-11-15T16:28:28;11.40;99.90
60473;DHT22;46318;52.716;6.444;2022-11-15T16:31:11;11.40;99.90
60473;DHT22;46318;52.716;6.444;2022-11-15T16:33:38;11.40;99.90
60473;DHT22;46318;52.716;6.444;2022-11-15T16:36:18;11.30;99.90
60473;DHT22;46318;52.716;6.444;2022-11-15T16:38:49;11.40;99.90
60473;DHT22;46318;52.716;6.444;2022-11-15T16:41:16;11.40;99.90
60473;DHT22;46318;52.716;6.444;2022-11-15T16:43:50;11.40;99.90
60473;DHT22;46318;52.716;6.444;2022-11-15T16:46:17;11.40;99.90
60473;DHT22;46318;52.716;6.444;2022-11-15T16:48:44;11.40;99.90
60473;DHT22;46318;52.716;6.444;2022-11-15T16:51:10;11.40;99.90
60473;DHT22;46318;52.716;6.444;2022-11-15T16:53:36;11.40;99.90
60473;DHT22;46318;52.716;6.444;2022-11-15T16:56:02;11.40;99.90
60473;DHT22;46318;52.716;6.444;2022-11-15T16:58:28;11.30;99.90
60473;DHT22;46318;52.716;6.444;2022-11-15T17:00:55;11.30;99.90
60473;DHT22;46318;52.716;6.444;2022-11-15T17:03:22;11.30;99.90
60473;DHT22;46318;52.716;6.444;2022-11-15T17:05:49;11.30;99.90
60473;DHT22;46318;52.716;6.444;2022-11-15T17:08:15;11.30;99.90
60473;DHT22;46318;52.716;6.444;2022-11-15T17:10:41;11.30;99.90
60473;DHT22;46318;52.716;6.444;2022-11-15T17:13:13;11.30;99.90
60473;DHT22;46318;52.716;6.444;2022-11-15T17:15:39;11.30;99.90
60473;DHT22;46318;52.716;6.444;2022-11-15T17:18:05;11.30;99.90
60473;DHT22;46318;52.716;6.444;2022-11-15T17:20:31;11.30;99.90
60473;DHT22;46318;52.716;6.444;2022-11-15T17:22:57;11.30;99.90
60473;DHT22;46318;52.716;6.444;2022-11-15T17:25:23;11.30;99.90
60473;DHT22;46318;52.716;6.444;2022-11-15T17:27:49;11.30;99.90
60473;DHT22;46318;52.716;6.444;2022-11-15T17:30:15;11.30;99.90
60473;DHT22;46318;52.716;6.444;2022-11-15T17:32:43;11.30;99.90
60473;DHT22;46318;52.716;6.444;2022-11-15T17:35:10;11.30;99.90
60473;DHT22;46318;52.716;6.444;2022-11-15T17:37:37;11.30;99.90
60473;DHT22;46318;52.716;6.444;2022-11-15T17:40:03;11.30;99.90
60473;DHT22;46318;52.716;6.444;2022-11-15T17:42:29;11.30;99.90
60473;DHT22;46318;52.716;6.444;2022-11-15T17:44:56;11.30;99.90
60473;DHT22;46318;52.716;6.444;2022-11-15T17:47:22;11.30;99.90
60473;DHT22;46318;52.716;6.444;2022-11-15T17:49:47;11.30;99.90